sensor_id;sensor_type;location;lat;lon;timestamp;P1;durP1;ratioP1;P2;durP2;ratioP2
40623;SDS011;26325;48.594;11.650;2024-01-11T00:00:36;39.72;;;25.98;;
40623;SDS011;26325;48.594;11.650;2024-01-11T00:03:02;36.75;;;24.08;;
40623;SDS011;26325;48.594;11.650;2024-01-11T00:05:28;39.80;;;26.63;;
40623;SDS011;26325;48.594;11.650;2024-01-11T00:07:54;38.45;;;26.13;;
40623;SDS011;26325;48.594;11.650;2024-01-11T00:10:19;42.30;;;26.83;;
40623;SDS011;26325;48.594;11.650;2024-01-11T00:12:45;38.10;;;25.42;;
40623;SDS011;26325;48.594;11.650;2024-01-11T00:15:13;37.45;;;25.08;;
40623;SDS011;26325;48.594;11.650;2024-01-11T00:17:41;37.80;;;25.52;;
40623;SDS011;26325;48.594;11.650;2024-01-11T00:20:07;38.67;;;25.23;;
40623;SDS011;26325;48.594;11.650;2024-01-11T00:22:33;37.30;;;24.48;;
40623;SDS011;26325;48.594;11.650;2024-01-11T00:25:00;41.40;;;26.48;;
40623;SDS011;26325;48.594;11.650;2024-01-11T00:27:29;38.92;;;26.15;;
40623;SDS011;26325;48.594;11.650;2024-01-11T00:29:57;38.60;;;25.20;;
40623;SDS011;26325;48.594;11.650;2024-01-11T00:32:22;40.53;;;26.33;;
40623;SDS011;26325;48.594;11.650;2024-01-11T00:34:48;40.10;;;26.70;;
40623;SDS011;26325;48.594;11.650;2024-01-11T00:37:13;39.53;;;25.90;;
40623;SDS011;26325;48.594;11.650;2024-01-11T00:39:39;36.15;;;24.35;;
40623;SDS011;26325;48.594;11.650;2024-01-11T00:42:04;39.42;;;25.85;;
40623;SDS011;26325;48.594;11.650;2024-01-11T00:44:30;36.72;;;25.20;;
40623;SDS011;26325;48.594;11.650;2024-01-11T00:46:56;38.85;;;25.25;;
40623;SDS011;26325;48.594;11.650;2024-01-11T00:49:21;38.58;;;25.25;;
40623;SDS011;26325;48.594;11.650;2024-01-11T00:51:47;38.28;;;25.52;;
40623;SDS011;26325;48.594;11.650;2024-01-11T00:54:12;38.40;;;26.13;;
40623;SDS011;26325;48.594;11.650;2024-01-11T00:56:38;37.80;;;25.23;;
40623;SDS011;26325;48.594;11.650;2024-01-11T00:59:03;40.08;;;26.35;;
40623;SDS011;26325;48.594;11.650;2024-01-11T01:01:29;37.50;;;24.92;;
40623;SDS011;26325;48.594;11.650;2024-01-11T01:03:58;37.10;;;24.48;;
40623;SDS011;26325;48.594;11.650;2024-01-11T01:06:23;37.72;;;24.92;;
40623;SDS011;26325;48.594;11.650;2024-01-11T01:08:49;39.78;;;26.50;;
40623;SDS011;26325;48.594;11.650;2024-01-11T01:11:17;38.17;;;26.27;;
40623;SDS011;26325;48.594;11.650;2024-01-11T01:13:42;37.63;;;25.67;;
40623;SDS011;26325;48.594;11.650;2024-01-11T01:16:08;37.30;;;23.77;;
40623;SDS011;26325;48.594;11.650;2024-01-11T01:18:33;38.75;;;24.77;;
40623;SDS011;26325;48.594;11.650;2024-01-11T01:20:59;39.22;;;25.42;;
40623;SDS011;26325;48.594;11.650;2024-01-11T01:23:24;37.50;;;24.65;;
40623;SDS011;26325;48.594;11.650;2024-01-11T01:25:50;38.97;;;25.23;;
40623;SDS011;26325;48.594;11.650;2024-01-11T01:28:18;39.58;;;24.83;;
40623;SDS011;26325;48.594;11.650;2024-01-11T01:30:45;37.33;;;25.05;;
40623;SDS011;26325;48.594;11.650;2024-01-11T01:33:11;35.78;;;23.65;;
40623;SDS011;26325;48.594;11.650;2024-01-11T01:35:36;36.70;;;24.85;;
40623;SDS011;26325;48.594;11.650;2024-01-11T01:38:04;36.83;;;24.70;;
40623;SDS011;26325;48.594;11.650;2024-01-11T01:40:30;36.58;;;24.15;;
40623;SDS011;26325;48.594;11.650;2024-01-11T01:43:00;40.25;;;25.42;;
40623;SDS011;26325;48.594;11.650;2024-01-11T01:45:25;38.90;;;25.15;;
40623;SDS011;26325;48.594;11.650;2024-01-11T01:47:52;37.70;;;24.00;;
40623;SDS011;26325;48.594;11.650;2024-01-11T01:50:18;37.10;;;24.23;;
40623;SDS011;26325;48.594;11.650;2024-01-11T01:52:45;38.10;;;24.70;;
40623;SDS011;26325;48.594;11.650;2024-01-11T01:55:12;34.25;;;22.90;;
40623;SDS011;26325;48.594;11.650;2024-01-11T01:57:40;36.17;;;23.23;;
40623;SDS011;26325;48.594;11.650;2024-01-11T02:00:09;36.70;;;24.23;;
40623;SDS011;26325;48.594;11.650;2024-01-11T02:02:36;39.42;;;25.40;;
40623;SDS011;26325;48.594;11.650;2024-01-11T02:05:05;38.65;;;25.05;;
40623;SDS011;26325;48.594;11.650;2024-01-11T02:07:31;38.38;;;24.67;;
40623;SDS011;26325;48.594;11.650;2024-01-11T02:09:57;36.78;;;25.33;;
40623;SDS011;26325;48.594;11.650;2024-01-11T02:12:23;41.42;;;25.25;;
40623;SDS011;26325;48.594;11.650;2024-01-11T02:14:53;38.92;;;25.13;;
40623;SDS011;26325;48.594;11.650;2024-01-11T02:17:19;38.17;;;24.80;;
40623;SDS011;26325;48.594;11.650;2024-01-11T02:19:46;35.55;;;24.05;;
40623;SDS011;26325;48.594;11.650;2024-01-11T02:22:15;36.60;;;23.75;;
40623;SDS011;26325;48.594;11.650;2024-01-11T02:24:49;40.43;;;25.10;;
40623;SDS011;26325;48.594;11.650;2024-01-11T02:27:18;36.75;;;23.90;;
40623;SDS011;26325;48.594;11.650;2024-01-11T02:29:43;38.15;;;25.73;;
40623;SDS011;26325;48.594;11.650;2024-01-11T02:32:09;36.47;;;23.92;;
40623;SDS011;26325;48.594;11.650;2024-01-11T02:34:37;35.25;;;23.70;;
40623;SDS011;26325;48.594;11.650;2024-01-11T02:37:03;36.35;;;24.38;;
40623;SDS011;26325;48.594;11.650;2024-01-11T02:39:30;40.35;;;25.08;;
40623;SDS011;26325;48.594;11.650;2024-01-11T02:41:56;38.60;;;24.88;;
40623;SDS011;26325;48.594;11.650;2024-01-11T02:44:23;38.05;;;24.27;;
40623;SDS011;26325;48.594;11.650;2024-01-11T02:46:50;34.45;;;23.08;;
40623;SDS011;26325;48.594;11.650;2024-01-11T02:49:17;37.25;;;23.55;;
40623;SDS011;26325;48.594;11.650;2024-01-11T02:51:43;38.10;;;25.00;;
40623;SDS011;26325;48.594;11.650;2024-01-11T02:54:09;39.63;;;24.38;;
40623;SDS011;26325;48.594;11.650;2024-01-11T02:56:34;37.47;;;23.25;;
40623;SDS011;26325;48.594;11.650;2024-01-11T02:59:02;37.03;;;23.38;;
40623;SDS011;26325;48.594;11.650;2024-01-11T03:01:27;38.15;;;23.92;;
40623;SDS011;26325;48.594;11.650;2024-01-11T03:03:56;34.40;;;23.52;;
40623;SDS011;26325;48.594;11.650;2024-01-11T03:06:22;36.88;;;24.02;;
40623;SDS011;26325;48.594;11.650;2024-01-11T03:08:48;35.88;;;24.17;;
40623;SDS011;26325;48.594;11.650;2024-01-11T03:11:14;35.20;;;23.30;;
40623;SDS011;26325;48.594;11.650;2024-01-11T03:13:41;37.60;;;23.30;;
40623;SDS011;26325;48.594;11.650;2024-01-11T03:16:06;38.50;;;25.10;;
40623;SDS011;26325;48.594;11.650;2024-01-11T03:18:32;37.42;;;24.65;;
40623;SDS011;26325;48.594;11.650;2024-01-11T03:21:00;34.67;;;23.05;;
40623;SDS011;26325;48.594;11.650;2024-01-11T03:23:25;36.28;;;24.33;;
40623;SDS011;26325;48.594;11.650;2024-01-11T03:25:51;36.05;;;23.55;;
40623;SDS011;26325;48.594;11.650;2024-01-11T03:28:16;33.95;;;22.55;;
40623;SDS011;26325;48.594;11.650;2024-01-11T03:30:42;36.20;;;24.60;;
40623;SDS011;26325;48.594;11.650;2024-01-11T03:33:08;36.42;;;23.95;;
40623;SDS011;26325;48.594;11.650;2024-01-11T03:35:34;37.33;;;23.85;;
40623;SDS011;26325;48.594;11.650;2024-01-11T03:37:59;35.90;;;23.85;;
40623;SDS011;26325;48.594;11.650;2024-01-11T03:40:27;37.95;;;24.75;;
40623;SDS011;26325;48.594;11.650;2024-01-11T03:42:53;35.63;;;23.98;;
40623;SDS011;26325;48.594;11.650;2024-01-11T03:45:18;35.58;;;23.30;;
40623;SDS011;26325;48.594;11.650;2024-01-11T03:47:46;34.65;;;23.30;;
40623;SDS011;26325;48.594;11.650;2024-01-11T03:50:12;36.50;;;24.17;;
40623;SDS011;26325;48.594;11.650;2024-01-11T03:52:39;38.72;;;24.75;;
40623;SDS011;26325;48.594;11.650;2024-01-11T03:55:08;34.83;;;23.77;;
40623;SDS011;26325;48.594;11.650;2024-01-11T03:57:34;34.97;;;22.35;;
40623;SDS011;26325;48.594;11.650;2024-01-11T04:00:02;33.08;;;22.02;;
40623;SDS011;26325;48.594;11.650;2024-01-11T04:02:29;38.75;;;24.48;;
40623;SDS011;26325;48.594;11.650;2024-01-11T04:04:55;36.40;;;23.50;;
40623;SDS011;26325;48.594;11.650;2024-01-11T04:07:23;35.88;;;23.90;;
40623;SDS011;26325;48.594;11.650;2024-01-11T04:09:49;36.30;;;24.15;;
40623;SDS011;26325;48.594;11.650;2024-01-11T04:12:15;34.63;;;23.63;;
40623;SDS011;26325;48.594;11.650;2024-01-11T04:14:40;38.67;;;23.98;;
40623;SDS011;26325;48.594;11.650;2024-01-11T04:17:06;36.03;;;23.50;;
40623;SDS011;26325;48.594;11.650;2024-01-11T04:19:32;36.83;;;24.15;;
40623;SDS011;26325;48.594;11.650;2024-01-11T04:22:04;38.50;;;24.08;;
40623;SDS011;26325;48.594;11.650;2024-01-11T04:24:29;36.35;;;24.67;;
40623;SDS011;26325;48.594;11.650;2024-01-11T04:26:55;36.17;;;22.65;;
40623;SDS011;26325;48.594;11.650;2024-01-11T04:29:23;38.25;;;24.33;;
40623;SDS011;26325;48.594;11.650;2024-01-11T04:31:48;37.40;;;24.17;;
40623;SDS011;26325;48.594;11.650;2024-01-11T04:34:14;34.50;;;22.95;;
40623;SDS011;26325;48.594;11.650;2024-01-11T04:36:39;35.17;;;23.20;;
40623;SDS011;26325;48.594;11.650;2024-01-11T04:39:05;35.70;;;23.88;;
40623;SDS011;26325;48.594;11.650;2024-01-11T04:41:38;35.10;;;23.08;;
40623;SDS011;26325;48.594;11.650;2024-01-11T04:44:07;34.03;;;22.88;;
40623;SDS011;26325;48.594;11.650;2024-01-11T04:46:36;33.17;;;22.33;;
40623;SDS011;26325;48.594;11.650;2024-01-11T04:49:06;33.05;;;22.92;;
40623;SDS011;26325;48.594;11.650;2024-01-11T04:51:39;34.42;;;23.70;;
40623;SDS011;26325;48.594;11.650;2024-01-11T04:54:05;34.70;;;22.67;;
40623;SDS011;26325;48.594;11.650;2024-01-11T04:56:38;34.63;;;23.05;;
40623;SDS011;26325;48.594;11.650;2024-01-11T04:59:07;34.20;;;22.70;;
40623;SDS011;26325;48.594;11.650;2024-01-11T05:01:33;35.38;;;23.08;;
40623;SDS011;26325;48.594;11.650;2024-01-11T05:03:58;35.00;;;23.20;;
40623;SDS011;26325;48.594;11.650;2024-01-11T05:06:26;35.72;;;23.25;;
40623;SDS011;26325;48.594;11.650;2024-01-11T05:08:53;35.58;;;24.13;;
40623;SDS011;26325;48.594;11.650;2024-01-11T05:11:22;32.38;;;22.23;;
40623;SDS011;26325;48.594;11.650;2024-01-11T05:13:55;35.25;;;24.00;;
40623;SDS011;26325;48.594;11.650;2024-01-11T05:18:53;36.35;;;23.63;;
40623;SDS011;26325;48.594;11.650;2024-01-11T05:21:22;33.28;;;22.95;;
40623;SDS011;26325;48.594;11.650;2024-01-11T05:23:48;34.53;;;22.83;;
40623;SDS011;26325;48.594;11.650;2024-01-11T05:26:18;35.15;;;24.02;;
40623;SDS011;26325;48.594;11.650;2024-01-11T05:28:44;35.00;;;22.48;;
40623;SDS011;26325;48.594;11.650;2024-01-11T05:31:11;34.35;;;23.33;;
40623;SDS011;26325;48.594;11.650;2024-01-11T05:33:38;34.55;;;23.23;;
40623;SDS011;26325;48.594;11.650;2024-01-11T05:36:05;33.67;;;21.80;;
40623;SDS011;26325;48.594;11.650;2024-01-11T05:38:38;35.92;;;24.27;;
40623;SDS011;26325;48.594;11.650;2024-01-11T05:41:07;34.65;;;22.77;;
40623;SDS011;26325;48.594;11.650;2024-01-11T05:43:39;33.90;;;23.27;;
40623;SDS011;26325;48.594;11.650;2024-01-11T05:46:07;32.90;;;22.48;;
40623;SDS011;26325;48.594;11.650;2024-01-11T05:48:33;36.15;;;23.08;;
40623;SDS011;26325;48.594;11.650;2024-01-11T05:50:58;32.45;;;22.63;;
40623;SDS011;26325;48.594;11.650;2024-01-11T05:53:25;33.03;;;23.08;;
40623;SDS011;26325;48.594;11.650;2024-01-11T05:55:52;35.55;;;23.95;;
40623;SDS011;26325;48.594;11.650;2024-01-11T05:58:18;36.85;;;23.33;;
40623;SDS011;26325;48.594;11.650;2024-01-11T06:00:45;37.38;;;24.33;;
40623;SDS011;26325;48.594;11.650;2024-01-11T06:03:12;33.88;;;23.35;;
40623;SDS011;26325;48.594;11.650;2024-01-11T06:05:39;31.75;;;22.02;;
40623;SDS011;26325;48.594;11.650;2024-01-11T06:08:05;35.28;;;23.08;;
40623;SDS011;26325;48.594;11.650;2024-01-11T06:10:33;35.47;;;24.23;;
40623;SDS011;26325;48.594;11.650;2024-01-11T06:12:59;33.67;;;22.95;;
40623;SDS011;26325;48.594;11.650;2024-01-11T06:15:24;34.92;;;23.67;;
40623;SDS011;26325;48.594;11.650;2024-01-11T06:17:50;34.40;;;22.63;;
40623;SDS011;26325;48.594;11.650;2024-01-11T06:20:15;32.47;;;23.17;;
40623;SDS011;26325;48.594;11.650;2024-01-11T06:22:41;36.13;;;24.23;;
40623;SDS011;26325;48.594;11.650;2024-01-11T06:25:08;34.65;;;23.70;;
40623;SDS011;26325;48.594;11.650;2024-01-11T06:27:33;33.42;;;22.83;;
40623;SDS011;26325;48.594;11.650;2024-01-11T06:29:59;38.33;;;24.08;;
40623;SDS011;26325;48.594;11.650;2024-01-11T06:32:25;33.90;;;22.27;;
40623;SDS011;26325;48.594;11.650;2024-01-11T06:34:52;33.28;;;22.58;;
40623;SDS011;26325;48.594;11.650;2024-01-11T06:37:18;34.95;;;23.08;;
40623;SDS011;26325;48.594;11.650;2024-01-11T06:39:44;34.42;;;22.95;;
40623;SDS011;26325;48.594;11.650;2024-01-11T06:42:09;35.38;;;23.33;;
40623;SDS011;26325;48.594;11.650;2024-01-11T06:44:35;36.65;;;23.95;;
40623;SDS011;26325;48.594;11.650;2024-01-11T06:47:00;33.60;;;22.85;;
40623;SDS011;26325;48.594;11.650;2024-01-11T06:49:30;34.58;;;22.65;;
40623;SDS011;26325;48.594;11.650;2024-01-11T06:52:01;32.55;;;21.88;;
40623;SDS011;26325;48.594;11.650;2024-01-11T06:54:29;32.35;;;22.45;;
40623;SDS011;26325;48.594;11.650;2024-01-11T06:56:56;34.03;;;22.48;;
40623;SDS011;26325;48.594;11.650;2024-01-11T06:59:22;34.33;;;23.38;;
40623;SDS011;26325;48.594;11.650;2024-01-11T07:01:52;34.33;;;23.33;;
40623;SDS011;26325;48.594;11.650;2024-01-11T07:04:17;34.47;;;23.05;;
40623;SDS011;26325;48.594;11.650;2024-01-11T07:06:43;35.25;;;23.80;;
40623;SDS011;26325;48.594;11.650;2024-01-11T07:09:08;36.50;;;23.63;;
40623;SDS011;26325;48.594;11.650;2024-01-11T07:11:36;33.03;;;23.85;;
40623;SDS011;26325;48.594;11.650;2024-01-11T07:14:01;34.97;;;23.98;;
40623;SDS011;26325;48.594;11.650;2024-01-11T07:16:29;34.67;;;22.63;;
40623;SDS011;26325;48.594;11.650;2024-01-11T07:18:56;35.95;;;23.02;;
40623;SDS011;26325;48.594;11.650;2024-01-11T07:21:22;39.60;;;23.85;;
40623;SDS011;26325;48.594;11.650;2024-01-11T07:23:59;36.03;;;23.33;;
40623;SDS011;26325;48.594;11.650;2024-01-11T07:26:25;32.90;;;22.27;;
40623;SDS011;26325;48.594;11.650;2024-01-11T07:28:52;36.67;;;23.60;;
40623;SDS011;26325;48.594;11.650;2024-01-11T07:31:20;34.40;;;23.45;;
40623;SDS011;26325;48.594;11.650;2024-01-11T07:33:45;36.25;;;24.20;;
40623;SDS011;26325;48.594;11.650;2024-01-11T07:36:13;35.33;;;23.65;;
40623;SDS011;26325;48.594;11.650;2024-01-11T07:38:39;36.40;;;23.55;;
40623;SDS011;26325;48.594;11.650;2024-01-11T07:41:05;34.20;;;22.98;;
40623;SDS011;26325;48.594;11.650;2024-01-11T07:43:32;34.35;;;23.65;;
40623;SDS011;26325;48.594;11.650;2024-01-11T07:46:01;36.78;;;24.75;;
40623;SDS011;26325;48.594;11.650;2024-01-11T07:48:29;35.50;;;23.65;;
40623;SDS011;26325;48.594;11.650;2024-01-11T07:50:59;34.13;;;24.02;;
40623;SDS011;26325;48.594;11.650;2024-01-11T07:53:25;39.08;;;26.05;;
40623;SDS011;26325;48.594;11.650;2024-01-11T07:55:51;37.90;;;27.42;;
40623;SDS011;26325;48.594;11.650;2024-01-11T07:58:17;42.75;;;30.55;;
40623;SDS011;26325;48.594;11.650;2024-01-11T08:00:44;40.42;;;28.83;;
40623;SDS011;26325;48.594;11.650;2024-01-11T08:03:10;40.60;;;29.40;;
40623;SDS011;26325;48.594;11.650;2024-01-11T08:05:36;40.05;;;28.80;;
40623;SDS011;26325;48.594;11.650;2024-01-11T08:08:02;40.80;;;28.45;;
40623;SDS011;26325;48.594;11.650;2024-01-11T08:10:29;39.50;;;26.98;;
40623;SDS011;26325;48.594;11.650;2024-01-11T08:12:57;36.28;;;24.92;;
40623;SDS011;26325;48.594;11.650;2024-01-11T08:15:29;52.17;;;37.83;;
40623;SDS011;26325;48.594;11.650;2024-01-11T08:17:55;42.70;;;29.73;;
40623;SDS011;26325;48.594;11.650;2024-01-11T08:20:20;42.53;;;30.00;;
40623;SDS011;26325;48.594;11.650;2024-01-11T08:22:46;35.53;;;25.63;;
40623;SDS011;26325;48.594;11.650;2024-01-11T08:25:12;34.05;;;24.10;;
40623;SDS011;26325;48.594;11.650;2024-01-11T08:27:38;34.25;;;25.30;;
40623;SDS011;26325;48.594;11.650;2024-01-11T08:30:04;32.70;;;25.60;;
40623;SDS011;26325;48.594;11.650;2024-01-11T08:32:31;32.83;;;25.92;;
40623;SDS011;26325;48.594;11.650;2024-01-11T08:35:11;32.38;;;24.73;;
40623;SDS011;26325;48.594;11.650;2024-01-11T08:37:37;31.73;;;22.80;;
40623;SDS011;26325;48.594;11.650;2024-01-11T08:40:06;31.17;;;24.98;;
40623;SDS011;26325;48.594;11.650;2024-01-11T08:42:32;32.10;;;24.98;;
40623;SDS011;26325;48.594;11.650;2024-01-11T08:44:58;32.83;;;25.58;;
40623;SDS011;26325;48.594;11.650;2024-01-11T08:47:24;30.00;;;23.88;;
40623;SDS011;26325;48.594;11.650;2024-01-11T08:49:49;31.35;;;25.15;;
40623;SDS011;26325;48.594;11.650;2024-01-11T08:52:15;29.92;;;24.83;;
40623;SDS011;26325;48.594;11.650;2024-01-11T08:54:40;30.80;;;25.02;;
40623;SDS011;26325;48.594;11.650;2024-01-11T08:57:06;29.85;;;24.15;;
40623;SDS011;26325;48.594;11.650;2024-01-11T08:59:34;31.92;;;25.48;;
40623;SDS011;26325;48.594;11.650;2024-01-11T09:01:59;30.50;;;25.48;;
40623;SDS011;26325;48.594;11.650;2024-01-11T09:04:25;38.28;;;29.30;;
40623;SDS011;26325;48.594;11.650;2024-01-11T09:06:53;33.35;;;27.25;;
40623;SDS011;26325;48.594;11.650;2024-01-11T09:09:22;31.60;;;26.92;;
40623;SDS011;26325;48.594;11.650;2024-01-11T09:11:48;31.70;;;26.58;;
40623;SDS011;26325;48.594;11.650;2024-01-11T09:14:14;34.72;;;27.35;;
40623;SDS011;26325;48.594;11.650;2024-01-11T09:16:40;31.42;;;26.27;;
40623;SDS011;26325;48.594;11.650;2024-01-11T09:21:34;31.48;;;26.52;;
40623;SDS011;26325;48.594;11.650;2024-01-11T09:23:59;34.47;;;28.90;;
40623;SDS011;26325;48.594;11.650;2024-01-11T09:26:25;32.55;;;29.05;;
40623;SDS011;26325;48.594;11.650;2024-01-11T09:28:51;31.33;;;27.80;;
40623;SDS011;26325;48.594;11.650;2024-01-11T09:31:16;30.80;;;27.50;;
40623;SDS011;26325;48.594;11.650;2024-01-11T09:33:42;32.28;;;28.80;;
40623;SDS011;26325;48.594;11.650;2024-01-11T09:36:11;33.92;;;30.20;;
40623;SDS011;26325;48.594;11.650;2024-01-11T09:38:38;34.30;;;30.60;;
40623;SDS011;26325;48.594;11.650;2024-01-11T09:41:07;32.78;;;29.33;;
40623;SDS011;26325;48.594;11.650;2024-01-11T09:43:34;33.55;;;29.98;;
40623;SDS011;26325;48.594;11.650;2024-01-11T09:46:06;33.75;;;30.25;;
40623;SDS011;26325;48.594;11.650;2024-01-11T09:48:35;33.80;;;30.20;;
40623;SDS011;26325;48.594;11.650;2024-01-11T09:51:04;33.03;;;29.52;;
40623;SDS011;26325;48.594;11.650;2024-01-11T09:53:35;34.58;;;30.98;;
40623;SDS011;26325;48.594;11.650;2024-01-11T09:56:02;32.05;;;28.77;;
40623;SDS011;26325;48.594;11.650;2024-01-11T09:58:33;33.55;;;30.00;;
40623;SDS011;26325;48.594;11.650;2024-01-11T10:01:07;33.65;;;30.25;;
40623;SDS011;26325;48.594;11.650;2024-01-11T10:03:39;33.47;;;30.03;;
40623;SDS011;26325;48.594;11.650;2024-01-11T10:06:06;34.05;;;30.45;;
40623;SDS011;26325;48.594;11.650;2024-01-11T10:08:32;34.25;;;30.60;;
40623;SDS011;26325;48.594;11.650;2024-01-11T10:11:03;32.30;;;28.90;;
40623;SDS011;26325;48.594;11.650;2024-01-11T10:13:32;33.50;;;29.88;;
40623;SDS011;26325;48.594;11.650;2024-01-11T10:16:11;34.03;;;30.35;;
40623;SDS011;26325;48.594;11.650;2024-01-11T10:18:53;31.42;;;28.15;;
40623;SDS011;26325;48.594;11.650;2024-01-11T10:21:20;35.95;;;31.88;;
40623;SDS011;26325;48.594;11.650;2024-01-11T10:23:46;34.80;;;31.10;;
40623;SDS011;26325;48.594;11.650;2024-01-11T10:28:39;33.67;;;30.05;;
40623;SDS011;26325;48.594;11.650;2024-01-11T10:31:05;33.55;;;30.05;;
40623;SDS011;26325;48.594;11.650;2024-01-11T10:33:34;33.67;;;30.10;;
40623;SDS011;26325;48.594;11.650;2024-01-11T10:36:04;36.00;;;32.40;;
40623;SDS011;26325;48.594;11.650;2024-01-11T10:38:40;33.50;;;30.13;;
40623;SDS011;26325;48.594;11.650;2024-01-11T10:41:06;36.15;;;32.45;;
40623;SDS011;26325;48.594;11.650;2024-01-11T10:43:37;35.45;;;31.95;;
40623;SDS011;26325;48.594;11.650;2024-01-11T10:46:04;35.95;;;32.35;;
40623;SDS011;26325;48.594;11.650;2024-01-11T10:48:31;35.78;;;32.08;;
40623;SDS011;26325;48.594;11.650;2024-01-11T10:51:02;34.20;;;30.70;;
40623;SDS011;26325;48.594;11.650;2024-01-11T10:53:50;32.70;;;29.30;;
40623;SDS011;26325;48.594;11.650;2024-01-11T10:56:19;34.90;;;31.20;;
40623;SDS011;26325;48.594;11.650;2024-01-11T10:58:46;35.22;;;31.70;;
40623;SDS011;26325;48.594;11.650;2024-01-11T11:01:18;35.00;;;31.30;;
40623;SDS011;26325;48.594;11.650;2024-01-11T11:03:46;31.98;;;28.70;;
40623;SDS011;26325;48.594;11.650;2024-01-11T11:06:30;34.88;;;31.33;;
40623;SDS011;26325;48.594;11.650;2024-01-11T11:08:57;34.33;;;30.73;;
40623;SDS011;26325;48.594;11.650;2024-01-11T11:11:27;34.55;;;30.95;;
40623;SDS011;26325;48.594;11.650;2024-01-11T11:13:55;31.88;;;28.88;;
40623;SDS011;26325;48.594;11.650;2024-01-11T11:16:26;34.20;;;30.80;;
40623;SDS011;26325;48.594;11.650;2024-01-11T11:19:02;32.75;;;29.70;;
40623;SDS011;26325;48.594;11.650;2024-01-11T11:21:28;33.25;;;30.02;;
40623;SDS011;26325;48.594;11.650;2024-01-11T11:23:55;34.20;;;30.90;;
40623;SDS011;26325;48.594;11.650;2024-01-11T11:26:21;36.65;;;33.05;;
40623;SDS011;26325;48.594;11.650;2024-01-11T11:28:47;35.50;;;31.83;;
40623;SDS011;26325;48.594;11.650;2024-01-11T11:31:14;36.65;;;33.00;;
40623;SDS011;26325;48.594;11.650;2024-01-11T11:34:06;35.85;;;32.25;;
40623;SDS011;26325;48.594;11.650;2024-01-11T11:36:33;37.30;;;33.60;;
40623;SDS011;26325;48.594;11.650;2024-01-11T11:39:01;34.72;;;31.23;;
40623;SDS011;26325;48.594;11.650;2024-01-11T11:41:30;36.92;;;33.22;;
40623;SDS011;26325;48.594;11.650;2024-01-11T11:44:03;36.40;;;32.63;;
40623;SDS011;26325;48.594;11.650;2024-01-11T11:46:29;36.42;;;32.58;;
40623;SDS011;26325;48.594;11.650;2024-01-11T11:48:58;30.75;;;27.73;;
40623;SDS011;26325;48.594;11.650;2024-01-11T11:51:25;34.10;;;30.67;;
40623;SDS011;26325;48.594;11.650;2024-01-11T11:53:51;32.35;;;29.05;;
40623;SDS011;26325;48.594;11.650;2024-01-11T11:56:20;34.15;;;30.75;;
40623;SDS011;26325;48.594;11.650;2024-01-11T11:58:50;31.02;;;27.88;;
40623;SDS011;26325;48.594;11.650;2024-01-11T12:01:18;34.80;;;31.30;;
40623;SDS011;26325;48.594;11.650;2024-01-11T12:03:44;32.33;;;28.95;;
40623;SDS011;26325;48.594;11.650;2024-01-11T12:06:18;33.65;;;30.08;;
40623;SDS011;26325;48.594;11.650;2024-01-11T12:08:48;34.28;;;30.70;;
40623;SDS011;26325;48.594;11.650;2024-01-11T12:11:19;34.22;;;30.75;;
40623;SDS011;26325;48.594;11.650;2024-01-11T12:13:49;35.38;;;31.58;;
40623;SDS011;26325;48.594;11.650;2024-01-11T12:16:15;35.05;;;31.33;;
40623;SDS011;26325;48.594;11.650;2024-01-11T12:18:45;36.97;;;33.08;;
40623;SDS011;26325;48.594;11.650;2024-01-11T12:21:11;36.10;;;32.35;;
40623;SDS011;26325;48.594;11.650;2024-01-11T12:23:39;34.97;;;31.35;;
40623;SDS011;26325;48.594;11.650;2024-01-11T12:26:09;36.35;;;32.55;;
40623;SDS011;26325;48.594;11.650;2024-01-11T12:28:38;34.20;;;30.70;;
40623;SDS011;26325;48.594;11.650;2024-01-11T12:31:05;34.80;;;31.05;;
40623;SDS011;26325;48.594;11.650;2024-01-11T12:33:30;36.25;;;32.65;;
40623;SDS011;26325;48.594;11.650;2024-01-11T12:35:57;35.47;;;31.67;;
40623;SDS011;26325;48.594;11.650;2024-01-11T12:38:23;36.10;;;32.20;;
40623;SDS011;26325;48.594;11.650;2024-01-11T12:43:14;38.10;;;34.17;;
40623;SDS011;26325;48.594;11.650;2024-01-11T12:45:40;35.78;;;31.88;;
40623;SDS011;26325;48.594;11.650;2024-01-11T12:48:07;34.10;;;30.52;;
40623;SDS011;26325;48.594;11.650;2024-01-11T12:50:35;33.40;;;29.92;;
40623;SDS011;26325;48.594;11.650;2024-01-11T12:53:08;33.83;;;30.33;;
40623;SDS011;26325;48.594;11.650;2024-01-11T12:56:01;35.22;;;31.48;;
40623;SDS011;26325;48.594;11.650;2024-01-11T12:58:29;34.40;;;30.80;;
40623;SDS011;26325;48.594;11.650;2024-01-11T13:00:54;34.75;;;31.05;;
40623;SDS011;26325;48.594;11.650;2024-01-11T13:03:24;33.22;;;29.83;;
40623;SDS011;26325;48.594;11.650;2024-01-11T13:05:52;33.67;;;30.27;;
40623;SDS011;26325;48.594;11.650;2024-01-11T13:08:22;34.03;;;30.55;;
40623;SDS011;26325;48.594;11.650;2024-01-11T13:10:50;35.33;;;31.55;;
40623;SDS011;26325;48.594;11.650;2024-01-11T13:13:16;34.15;;;30.60;;
40623;SDS011;26325;48.594;11.650;2024-01-11T13:15:42;34.92;;;31.38;;
40623;SDS011;26325;48.594;11.650;2024-01-11T13:18:08;35.35;;;31.75;;
40623;SDS011;26325;48.594;11.650;2024-01-11T13:23:16;33.97;;;30.30;;
40623;SDS011;26325;48.594;11.650;2024-01-11T13:25:49;33.00;;;29.50;;
40623;SDS011;26325;48.594;11.650;2024-01-11T13:28:19;34.92;;;31.23;;
40623;SDS011;26325;48.594;11.650;2024-01-11T13:30:46;32.70;;;29.25;;
40623;SDS011;26325;48.594;11.650;2024-01-11T13:33:14;34.45;;;30.83;;
40623;SDS011;26325;48.594;11.650;2024-01-11T13:35:43;35.13;;;31.45;;
40623;SDS011;26325;48.594;11.650;2024-01-11T13:38:10;35.25;;;31.50;;
40623;SDS011;26325;48.594;11.650;2024-01-11T13:40:36;33.75;;;30.20;;
40623;SDS011;26325;48.594;11.650;2024-01-11T13:43:03;33.08;;;29.63;;
40623;SDS011;26325;48.594;11.650;2024-01-11T13:45:29;33.67;;;30.05;;
40623;SDS011;26325;48.594;11.650;2024-01-11T13:47:58;33.40;;;29.90;;
40623;SDS011;26325;48.594;11.650;2024-01-11T13:50:25;34.00;;;30.40;;
40623;SDS011;26325;48.594;11.650;2024-01-11T13:52:50;31.95;;;28.52;;
40623;SDS011;26325;48.594;11.650;2024-01-11T13:55:16;34.78;;;31.08;;
40623;SDS011;26325;48.594;11.650;2024-01-11T13:57:43;34.92;;;31.23;;
40623;SDS011;26325;48.594;11.650;2024-01-11T14:00:11;34.40;;;30.58;;
40623;SDS011;26325;48.594;11.650;2024-01-11T14:02:37;34.95;;;31.17;;
40623;SDS011;26325;48.594;11.650;2024-01-11T14:05:11;35.85;;;32.00;;
40623;SDS011;26325;48.594;11.650;2024-01-11T14:07:42;36.03;;;30.92;;
40623;SDS011;26325;48.594;11.650;2024-01-11T14:10:09;33.65;;;29.40;;
40623;SDS011;26325;48.594;11.650;2024-01-11T14:12:35;34.53;;;30.05;;
40623;SDS011;26325;48.594;11.650;2024-01-11T14:15:02;33.72;;;29.80;;
40623;SDS011;26325;48.594;11.650;2024-01-11T14:17:30;33.40;;;29.05;;
40623;SDS011;26325;48.594;11.650;2024-01-11T14:19:55;34.05;;;30.40;;
40623;SDS011;26325;48.594;11.650;2024-01-11T14:22:23;32.33;;;27.80;;